createdAt,value
2022-10-12T00:01:28.541Z,8.10
2022-10-12T00:03:56.361Z,7.75
2022-10-12T00:06:25.576Z,7.43
2022-10-12T00:08:55.760Z,8.95
2022-10-12T00:11:25.987Z,7.72
2022-10-12T00:13:54.380Z,9.73
2022-10-12T00:16:24.253Z,8.63
2022-10-12T00:18:53.484Z,9.55
2022-10-12T00:21:21.981Z,7.88
2022-10-12T00:23:50.437Z,9.13
2022-10-12T00:26:23.056Z,8.30
2022-10-12T00:28:56.454Z,8.10
2022-10-12T00:31:25.521Z,7.20
2022-10-12T00:33:53.402Z,8.00
2022-10-12T00:36:23.488Z,6.63
2022-10-12T00:38:53.857Z,6.35
2022-10-12T00:41:25.749Z,7.50
2022-10-12T00:43:58.168Z,8.38
2022-10-12T00:46:33.693Z,5.70
2022-10-12T00:49:11.225Z,7.05
2022-10-12T00:51:42.377Z,6.68
2022-10-12T00:54:15.384Z,7.10
2022-10-12T00:59:17.698Z,5.82
2022-10-12T01:01:45.494Z,6.45
2022-10-12T01:04:13.467Z,5.38
2022-10-12T01:06:42.141Z,7.28
2022-10-12T01:09:12.562Z,6.57
2022-10-12T01:11:40.467Z,5.65
2022-10-12T01:14:09.757Z,5.55
2022-10-12T01:16:44.021Z,4.88
2022-10-12T01:19:30.463Z,6.93
2022-10-12T01:22:04.447Z,4.50
2022-10-12T01:24:52.680Z,5.65
2022-10-12T01:27:38.139Z,6.82
2022-10-12T01:30:16.744Z,6.00
2022-10-12T01:33:04.195Z,8.73
2022-10-12T01:35:39.553Z,6.85
2022-10-12T01:38:18.866Z,7.20
2022-10-12T01:40:52.238Z,6.60
2022-10-12T01:43:23.394Z,6.55
2022-10-12T01:45:52.556Z,6.35
2022-10-12T01:48:20.482Z,5.38
2022-10-12T01:50:51.809Z,5.88
2022-10-12T01:53:31.816Z,6.78
2022-10-12T01:56:10.070Z,6.80
2022-10-12T01:58:51.862Z,7.28
2022-10-12T02:01:30.817Z,5.72
2022-10-12T02:04:08.673Z,5.55
2022-10-12T02:06:44.215Z,6.30
2022-10-12T02:09:20.232Z,8.30
2022-10-12T02:11:52.298Z,6.50
2022-10-12T02:14:23.967Z,5.00
2022-10-12T02:16:57.268Z,5.60
2022-10-12T02:19:29.812Z,5.72
2022-10-12T02:22:01.850Z,6.60
2022-10-12T02:24:31.458Z,5.32
2022-10-12T02:27:01.430Z,5.25
2022-10-12T02:29:32.662Z,8.20
2022-10-12T02:32:08.011Z,7.60
2022-10-12T02:34:39.423Z,5.53
2022-10-12T02:37:10.849Z,5.35
2022-10-12T02:39:48.832Z,6.03
2022-10-12T02:42:23.613Z,6.55
2022-10-12T02:44:54.975Z,6.80
2022-10-12T02:47:27.007Z,5.43
2022-10-12T02:49:56.372Z,5.30
2022-10-12T02:52:25.463Z,5.13
2022-10-12T02:54:53.356Z,5.45
2022-10-12T02:57:21.181Z,4.18
2022-10-12T02:59:49.037Z,4.97
2022-10-12T03:02:16.733Z,5.68
2022-10-12T03:04:46.069Z,6.45
2022-10-12T03:07:13.935Z,6.40
2022-10-12T03:09:41.725Z,8.38
2022-10-12T03:12:09.580Z,5.28
2022-10-12T03:14:37.563Z,8.07
2022-10-12T03:17:05.766Z,5.78
2022-10-12T03:19:33.720Z,6.25
2022-10-12T03:22:04.430Z,6.30
2022-10-12T03:24:32.169Z,6.05
2022-10-12T03:27:00.336Z,7.68
2022-10-12T03:29:28.124Z,6.25
2022-10-12T03:31:55.850Z,7.43
2022-10-12T03:34:23.724Z,6.22
2022-10-12T03:36:51.534Z,4.93
2022-10-12T03:39:23.227Z,5.25
2022-10-12T03:41:50.976Z,7.15
2022-10-12T03:44:18.734Z,6.15
2022-10-12T03:46:46.766Z,6.05
2022-10-12T03:49:14.516Z,5.60
2022-10-12T03:51:42.295Z,4.68
2022-10-12T03:54:10.328Z,7.03
2022-10-12T03:56:39.711Z,5.68
2022-10-12T03:59:07.896Z,4.53
2022-10-12T04:01:35.784Z,4.85
2022-10-12T04:04:03.684Z,7.07
2022-10-12T04:06:31.509Z,6.15
2022-10-12T04:08:59.241Z,5.80
2022-10-12T04:11:27.061Z,4.47
2022-10-12T04:13:56.174Z,4.55
2022-10-12T04:16:26.127Z,4.63
2022-10-12T04:18:56.666Z,5.45
2022-10-12T04:21:25.953Z,4.97
2022-10-12T04:23:53.688Z,5.43
2022-10-12T04:26:21.480Z,4.10
2022-10-12T04:28:49.284Z,5.57
2022-10-12T04:31:20.540Z,6.75
2022-10-12T04:33:48.323Z,5.53
2022-10-12T04:36:16.078Z,5.50
2022-10-12T04:38:43.823Z,4.25
2022-10-12T04:41:11.578Z,5.22
2022-10-12T04:43:39.434Z,4.40
2022-10-12T04:46:07.460Z,5.78
2022-10-12T04:48:36.670Z,6.45
2022-10-12T04:51:06.227Z,7.80
2022-10-12T04:53:34.023Z,5.75
2022-10-12T04:56:04.290Z,4.78
2022-10-12T04:58:32.474Z,5.78
2022-10-12T05:01:00.296Z,5.07
2022-10-12T05:03:28.105Z,4.35
2022-10-12T05:05:57.414Z,4.30
2022-10-12T05:08:25.594Z,6.85
2022-10-12T05:10:53.445Z,6.57
2022-10-12T05:13:21.351Z,7.80
2022-10-12T05:15:49.086Z,6.28
2022-10-12T05:18:17.302Z,6.95
2022-10-12T05:20:45.185Z,5.55
2022-10-12T05:23:14.375Z,5.90
2022-10-12T05:25:42.220Z,5.97
2022-10-12T05:28:10.733Z,5.88
2022-10-12T05:30:39.617Z,6.03
2022-10-12T05:33:07.442Z,6.03
2022-10-12T05:35:35.291Z,5.60
2022-10-12T05:38:03.112Z,6.22
2022-10-12T05:40:32.219Z,7.55
2022-10-12T05:43:00.028Z,5.30
2022-10-12T05:45:27.786Z,6.22
2022-10-12T05:47:55.870Z,8.25
2022-10-12T05:50:23.624Z,6.45
2022-10-12T05:52:51.492Z,9.57
2022-10-12T05:55:19.287Z,7.70
2022-10-12T05:57:51.925Z,6.85
2022-10-12T06:00:20.745Z,6.35
2022-10-12T06:02:48.999Z,5.68
2022-10-12T06:05:17.044Z,6.85
2022-10-12T06:07:44.779Z,6.15
2022-10-12T06:10:12.843Z,6.85
2022-10-12T06:12:40.982Z,10.07
2022-10-12T06:15:11.736Z,8.75
2022-10-12T06:17:39.594Z,6.30
2022-10-12T06:20:13.098Z,7.68
2022-10-12T06:22:41.513Z,8.77
2022-10-12T06:25:09.816Z,6.85
2022-10-12T06:27:37.610Z,7.63
2022-10-12T06:30:07.622Z,6.53
2022-10-12T06:32:37.352Z,7.35
2022-10-12T06:35:06.165Z,6.70
2022-10-12T06:37:50.565Z,6.38
2022-10-12T06:40:21.566Z,6.72
2022-10-12T06:42:52.720Z,6.25
2022-10-12T06:45:44.113Z,6.45
2022-10-12T06:48:18.839Z,7.90
2022-10-12T06:50:53.842Z,7.15
2022-10-12T06:53:25.426Z,6.93
2022-10-12T06:55:55.703Z,5.53
2022-10-12T06:58:24.329Z,7.22
2022-10-12T07:00:53.559Z,5.95
2022-10-12T07:03:22.950Z,6.47
2022-10-12T07:05:52.119Z,6.15
2022-10-12T07:08:19.966Z,7.15
2022-10-12T07:10:47.841Z,5.70
2022-10-12T07:13:15.682Z,6.22
2022-10-12T07:15:43.410Z,7.38
2022-10-12T07:18:15.912Z,8.20
2022-10-12T07:20:45.485Z,8.30
2022-10-12T07:23:16.136Z,7.13
2022-10-12T07:25:50.895Z,6.50
2022-10-12T07:28:19.328Z,7.45
2022-10-12T07:30:47.739Z,6.30
2022-10-12T07:33:15.602Z,6.28
2022-10-12T07:36:10.693Z,7.15
2022-10-12T07:38:33.182Z,7.60
2022-10-12T07:41:01.443Z,9.52
2022-10-12T07:43:29.894Z,6.07
2022-10-12T07:46:01.288Z,5.78
2022-10-12T07:48:29.341Z,5.45
2022-10-12T07:51:04.745Z,5.80
2022-10-12T07:53:51.553Z,6.35
2022-10-12T07:59:02.249Z,9.07
2022-10-12T08:01:32.225Z,5.13
2022-10-12T08:04:02.030Z,6.68
2022-10-12T08:06:38.835Z,6.97
2022-10-12T08:09:07.304Z,4.97
2022-10-12T08:11:40.087Z,5.10
2022-10-12T08:14:08.646Z,6.13
2022-10-12T08:16:36.394Z,6.65
2022-10-12T08:19:04.206Z,7.22
2022-10-12T08:21:33.301Z,5.40
2022-10-12T08:24:01.161Z,6.05
2022-10-12T08:26:29.262Z,5.57
2022-10-12T08:28:57.345Z,4.97
2022-10-12T08:31:25.189Z,6.22
2022-10-12T08:33:52.993Z,5.97
2022-10-12T08:36:20.966Z,4.70
2022-10-12T08:38:55.075Z,6.10
2022-10-12T08:41:38.235Z,4.40
2022-10-12T08:46:46.651Z,5.38
2022-10-12T08:49:20.049Z,6.43
2022-10-12T08:51:50.945Z,6.40
2022-10-12T08:54:21.967Z,5.43
2022-10-12T08:56:50.324Z,4.50
2022-10-12T08:59:19.826Z,4.43
2022-10-12T09:02:00.666Z,5.50
2022-10-12T09:04:40.464Z,4.80
2022-10-12T09:07:13.625Z,5.82
2022-10-12T09:09:57.859Z,6.05
2022-10-12T09:12:39.194Z,4.75
2022-10-12T09:15:15.461Z,5.13
2022-10-12T09:17:47.577Z,6.35
2022-10-12T09:20:20.563Z,6.03
2022-10-12T09:22:51.429Z,5.00
2022-10-12T09:25:25.251Z,5.22
2022-10-12T09:27:53.612Z,4.70
2022-10-12T09:30:22.125Z,5.80
2022-10-12T09:33:15.806Z,6.13
2022-10-12T09:35:46.002Z,4.75
2022-10-12T09:38:14.061Z,4.85
2022-10-12T09:40:43.731Z,5.82
2022-10-12T09:43:12.735Z,3.63
2022-10-12T09:45:40.692Z,5.93
2022-10-12T09:48:22.366Z,4.97
2022-10-12T09:50:53.416Z,5.90
2022-10-12T09:53:32.376Z,4.30
2022-10-12T09:56:09.779Z,4.65
2022-10-12T09:58:49.204Z,4.82
2022-10-12T10:01:24.257Z,3.67
2022-10-12T10:04:10.268Z,4.70
2022-10-12T10:06:39.616Z,6.22
2022-10-12T10:09:07.956Z,4.45
2022-10-12T10:11:37.266Z,6.05
2022-10-12T10:14:05.037Z,5.65
2022-10-12T10:16:32.910Z,5.75
2022-10-12T10:19:03.104Z,5.38
2022-10-12T10:21:34.255Z,5.97
2022-10-12T10:24:03.444Z,6.10
2022-10-12T10:26:51.380Z,6.75
2022-10-12T10:29:32.068Z,6.45
2022-10-12T10:32:26.814Z,6.03
2022-10-12T10:35:03.171Z,3.92
2022-10-12T10:37:32.081Z,5.95
2022-10-12T10:40:00.940Z,5.18
2022-10-12T10:42:32.111Z,4.32
2022-10-12T10:45:03.528Z,3.83
2022-10-12T10:47:33.810Z,4.93
2022-10-12T10:50:04.486Z,4.55
2022-10-12T10:52:34.595Z,4.97
2022-10-12T10:55:26.341Z,5.20
2022-10-12T10:58:00.767Z,5.63
2022-10-12T11:00:38.946Z,4.70
2022-10-12T11:03:15.657Z,5.57
2022-10-12T11:05:46.614Z,5.90
2022-10-12T11:08:20.634Z,5.60
2022-10-12T11:10:54.038Z,4.70
2022-10-12T11:13:26.633Z,4.15
2022-10-12T11:15:59.369Z,4.57
2022-10-12T11:18:34.912Z,4.63
2022-10-12T11:21:08.581Z,4.75
2022-10-12T11:23:43.598Z,5.15
2022-10-12T11:26:19.375Z,7.00
2022-10-12T11:28:47.446Z,3.92
2022-10-12T11:31:21.263Z,4.40
2022-10-12T11:33:51.059Z,5.63
2022-10-12T11:36:23.683Z,5.13
2022-10-12T11:38:54.997Z,5.60
2022-10-12T11:41:35.459Z,4.95
2022-10-12T11:44:07.784Z,4.97
2022-10-12T11:46:43.305Z,4.72
2022-10-12T11:49:19.410Z,5.97
2022-10-12T11:51:49.326Z,5.43
2022-10-12T11:54:26.992Z,5.97
2022-10-12T11:56:58.847Z,4.90
2022-10-12T11:59:35.206Z,4.50
2022-10-12T12:02:14.283Z,5.40
2022-10-12T12:04:45.483Z,5.55
2022-10-12T12:07:40.622Z,4.88
2022-10-12T12:10:42.187Z,4.70
2022-10-12T12:13:22.665Z,4.90
2022-10-12T12:16:30.706Z,6.47
2022-10-12T12:19:36.962Z,6.05
2022-10-12T12:22:32.968Z,5.07
2022-10-12T12:25:15.973Z,6.03
2022-10-12T12:27:46.292Z,4.80
2022-10-12T12:30:34.273Z,5.78
2022-10-12T12:33:04.184Z,5.70
2022-10-12T12:35:37.956Z,5.20
2022-10-12T12:38:28.180Z,5.57
2022-10-12T12:40:59.710Z,5.72
2022-10-12T12:43:53.747Z,6.00
2022-10-12T12:46:21.993Z,5.70
2022-10-12T12:49:03.956Z,7.38
2022-10-12T12:51:43.379Z,4.67
2022-10-12T12:54:22.213Z,5.45
2022-10-12T12:57:06.880Z,6.88
2022-10-12T13:00:05.205Z,5.38
2022-10-12T13:03:09.248Z,7.03
2022-10-12T13:06:13.870Z,4.97
2022-10-12T13:08:58.382Z,4.97
2022-10-12T13:11:55.683Z,4.38
2022-10-12T13:14:38.728Z,5.10
2022-10-12T13:17:35.387Z,6.45
2022-10-12T13:20:07.342Z,4.95
2022-10-12T13:22:36.418Z,4.63
2022-10-12T13:25:08.981Z,5.22
2022-10-12T13:27:44.180Z,4.10
2022-10-12T13:30:21.620Z,6.15
2022-10-12T13:32:56.888Z,5.28
2022-10-12T13:35:32.567Z,4.95
2022-10-12T13:38:02.599Z,4.85
2022-10-12T13:40:37.270Z,4.10
2022-10-12T13:43:30.991Z,5.47
2022-10-12T13:45:58.936Z,5.03
2022-10-12T13:48:46.866Z,5.07
2022-10-12T13:51:24.636Z,6.13
2022-10-12T13:53:52.719Z,4.60
2022-10-12T13:56:24.850Z,4.45
2022-10-12T13:58:57.263Z,5.18
2022-10-12T14:01:25.244Z,6.13
2022-10-12T14:03:53.254Z,5.68
2022-10-12T14:06:27.926Z,5.90
2022-10-12T14:08:58.257Z,5.45
2022-10-12T14:11:28.584Z,6.15
2022-10-12T14:13:58.185Z,4.95
2022-10-12T14:16:26.116Z,4.53
2022-10-12T14:18:54.035Z,5.63
2022-10-12T14:21:23.955Z,4.43
2022-10-12T14:23:54.492Z,5.30
2022-10-12T14:26:34.380Z,4.40
2022-10-12T14:29:42.668Z,5.75
2022-10-12T14:32:44.268Z,4.38
2022-10-12T14:35:15.612Z,5.13
2022-10-12T14:37:43.896Z,5.25
2022-10-12T14:40:31.267Z,5.90
2022-10-12T14:43:03.381Z,4.43
2022-10-12T14:45:32.400Z,5.20
2022-10-12T14:48:02.705Z,5.47
2022-10-12T14:50:32.295Z,4.30
2022-10-12T14:53:03.457Z,4.85
2022-10-12T14:55:34.885Z,5.03
2022-10-12T14:58:03.678Z,4.05
2022-10-12T15:00:33.439Z,4.03
2022-10-12T15:03:04.452Z,6.95
2022-10-12T15:05:33.764Z,5.55
2022-10-12T15:08:07.470Z,5.13
2022-10-12T15:10:36.432Z,5.97
2022-10-12T15:13:04.610Z,5.20
2022-10-12T15:15:37.408Z,4.35
2022-10-12T15:20:35.169Z,4.28
2022-10-12T15:23:06.889Z,4.78
2022-10-12T15:25:43.538Z,6.60
2022-10-12T15:28:11.739Z,5.60
2022-10-12T15:30:58.028Z,4.30
2022-10-12T15:33:29.495Z,6.60
2022-10-12T15:35:57.710Z,5.65
2022-10-12T15:38:25.600Z,5.13
2022-10-12T15:40:56.083Z,6.80
2022-10-12T15:43:23.969Z,5.03
2022-10-12T15:45:51.754Z,5.25
2022-10-12T15:48:19.939Z,5.80
2022-10-12T15:50:50.879Z,6.38
2022-10-12T15:53:22.312Z,6.90
2022-10-12T15:55:50.143Z,4.80
2022-10-12T15:58:18.049Z,4.75
2022-10-12T16:00:45.927Z,5.82
2022-10-12T16:03:21.426Z,4.90
2022-10-12T16:05:55.178Z,6.72
2022-10-12T16:08:23.112Z,7.03
2022-10-12T16:10:51.117Z,5.60
2022-10-12T16:13:18.966Z,4.80
2022-10-12T16:15:47.022Z,6.30
2022-10-12T16:18:16.784Z,6.38
2022-10-12T16:20:49.781Z,7.03
2022-10-12T16:23:26.052Z,5.45
2022-10-12T16:25:54.740Z,5.13
2022-10-12T16:28:23.777Z,5.65
2022-10-12T16:30:52.345Z,5.45
2022-10-12T16:33:20.573Z,4.90
2022-10-12T16:35:48.569Z,6.78
2022-10-12T16:38:16.385Z,6.18
2022-10-12T16:40:45.748Z,5.93
2022-10-12T16:43:13.543Z,6.03
2022-10-12T16:45:41.392Z,6.10
2022-10-12T16:48:09.377Z,5.82
2022-10-12T16:50:40.792Z,7.93
2022-10-12T16:53:09.285Z,7.68
2022-10-12T16:55:39.834Z,6.22
2022-10-12T16:58:09.021Z,6.65
2022-10-12T17:00:37.023Z,5.97
2022-10-12T17:03:04.939Z,12.98
2022-10-12T17:05:32.777Z,7.28
2022-10-12T17:08:00.693Z,8.45
2022-10-12T17:10:28.723Z,7.53
2022-10-12T17:12:56.591Z,7.40
2022-10-12T17:15:25.837Z,7.22
2022-10-12T17:17:54.088Z,8.50
2022-10-12T17:20:21.878Z,8.80
2022-10-12T17:22:49.992Z,13.85
2022-10-12T17:25:17.970Z,18.30
2022-10-12T17:27:48.839Z,18.38
2022-10-12T17:30:17.338Z,17.92
2022-10-12T17:32:46.516Z,15.70
2022-10-12T17:35:14.428Z,19.08
2022-10-12T17:37:42.449Z,19.20
2022-10-12T17:40:11.552Z,22.40
2022-10-12T17:42:39.601Z,21.83
2022-10-12T17:45:08.288Z,18.58
2022-10-12T17:47:36.174Z,22.10
2022-10-12T17:50:06.269Z,20.38
2022-10-12T17:52:39.388Z,18.02
2022-10-12T17:55:15.249Z,16.67
2022-10-12T17:57:52.420Z,17.05
2022-10-12T18:00:20.395Z,15.45
2022-10-12T18:02:48.293Z,15.07
2022-10-12T18:05:17.887Z,13.40
2022-10-12T18:07:45.937Z,13.88
2022-10-12T18:10:14.012Z,13.68
2022-10-12T18:12:41.868Z,10.57
2022-10-12T18:15:10.154Z,11.10
2022-10-12T18:17:38.593Z,10.18
2022-10-12T18:20:07.311Z,10.77
2022-10-12T18:22:36.479Z,8.73
2022-10-12T18:25:04.345Z,9.52
2022-10-12T18:27:32.141Z,11.18
2022-10-12T18:29:59.877Z,9.98
2022-10-12T18:32:28.828Z,10.23
2022-10-12T18:34:56.936Z,10.85
2022-10-12T18:37:24.804Z,11.63
2022-10-12T18:39:54.328Z,11.68
2022-10-12T18:42:22.177Z,12.85
2022-10-12T18:44:50.077Z,10.25
2022-10-12T18:47:20.921Z,10.70
2022-10-12T18:49:52.087Z,14.40
2022-10-12T18:52:20.873Z,17.30
2022-10-12T18:54:51.155Z,18.80
2022-10-12T18:57:20.340Z,18.33
2022-10-12T18:59:50.422Z,16.88
2022-10-12T19:02:20.657Z,17.10
2022-10-12T19:04:49.154Z,24.70
2022-10-12T19:07:17.434Z,55.58
2022-10-12T19:09:45.274Z,43.40
2022-10-12T19:12:16.743Z,33.25
2022-10-12T19:14:47.786Z,24.70
2022-10-12T19:17:16.085Z,21.00
2022-10-12T19:19:43.885Z,20.33
2022-10-12T19:22:11.850Z,17.73
2022-10-12T19:24:39.675Z,15.75
2022-10-12T19:27:07.824Z,16.38
2022-10-12T19:29:35.667Z,15.95
2022-10-12T19:32:04.868Z,15.05
2022-10-12T19:34:32.867Z,11.07
2022-10-12T19:37:00.929Z,11.13
2022-10-12T19:39:28.761Z,10.85
2022-10-12T19:41:56.609Z,10.93
2022-10-12T19:44:24.585Z,9.60
2022-10-12T19:46:53.605Z,13.35
2022-10-12T19:49:22.898Z,11.95
2022-10-12T19:51:50.756Z,12.85
2022-10-12T19:54:19.616Z,11.90
2022-10-12T19:56:47.472Z,12.73
2022-10-12T19:59:15.323Z,12.50
2022-10-12T20:01:47.801Z,11.32
2022-10-12T20:04:16.111Z,12.23
2022-10-12T20:06:45.548Z,12.07
2022-10-12T20:09:13.527Z,12.98
2022-10-12T20:11:41.430Z,11.80
2022-10-12T20:14:09.382Z,11.75
2022-10-12T20:16:37.891Z,12.75
2022-10-12T20:19:07.356Z,12.68
2022-10-12T20:21:37.298Z,8.57
2022-10-12T20:24:09.877Z,11.48
2022-10-12T20:26:37.846Z,10.10
2022-10-12T20:29:05.797Z,10.80
2022-10-12T20:31:34.957Z,9.65
2022-10-12T20:34:02.900Z,9.27
2022-10-12T20:36:33.000Z,9.82
2022-10-12T20:39:01.679Z,7.90
2022-10-12T20:41:30.814Z,9.50
2022-10-12T20:44:00.320Z,9.00
2022-10-12T20:46:28.923Z,8.93
2022-10-12T20:48:58.814Z,9.43
2022-10-12T20:51:29.563Z,7.70
2022-10-12T20:53:59.195Z,9.18
2022-10-12T20:56:27.230Z,7.95
2022-10-12T20:58:56.478Z,8.23
2022-10-12T21:01:25.829Z,7.82
2022-10-12T21:03:53.990Z,9.30
2022-10-12T21:06:23.353Z,9.40
2022-10-12T21:08:52.216Z,10.93
2022-10-12T21:11:20.052Z,9.35
2022-10-12T21:13:49.186Z,9.10
2022-10-12T21:16:18.388Z,7.88
2022-10-12T21:18:46.138Z,9.85
2022-10-12T21:21:16.166Z,9.45
2022-10-12T21:23:45.331Z,10.43
2022-10-12T21:26:15.048Z,9.70
2022-10-12T21:28:43.122Z,11.25
2022-10-12T21:31:11.759Z,10.38
2022-10-12T21:33:41.587Z,9.32
2022-10-12T21:36:11.380Z,9.60
2022-10-12T21:38:39.567Z,14.68
2022-10-12T21:41:08.377Z,8.73
2022-10-12T21:43:37.068Z,12.70
2022-10-12T21:46:05.694Z,9.98
2022-10-12T21:48:34.483Z,10.50
2022-10-12T21:51:04.645Z,11.07
2022-10-12T21:53:33.000Z,8.57
2022-10-12T21:56:05.567Z,10.13
2022-10-12T21:58:33.346Z,10.00
2022-10-12T22:01:05.769Z,9.32
2022-10-12T22:03:33.921Z,9.63
2022-10-12T22:06:03.259Z,10.88
2022-10-12T22:08:31.144Z,8.75
2022-10-12T22:11:04.881Z,8.75
2022-10-12T22:13:32.704Z,9.70
2022-10-12T22:16:05.466Z,10.25
2022-10-12T22:21:05.459Z,9.77
2022-10-12T22:23:34.835Z,10.27
2022-10-12T22:26:05.620Z,9.40
2022-10-12T22:28:33.897Z,11.40
2022-10-12T22:31:01.998Z,12.32
2022-10-12T22:33:29.786Z,11.00
2022-10-12T22:35:59.235Z,10.32
2022-10-12T22:38:29.507Z,9.25
2022-10-12T22:40:58.229Z,11.43
2022-10-12T22:43:26.808Z,10.43
2022-10-12T22:45:55.271Z,10.38
2022-10-12T22:48:23.959Z,9.82
2022-10-12T22:50:52.073Z,10.43
2022-10-12T22:53:21.601Z,9.73
2022-10-12T22:55:53.999Z,10.13
2022-10-12T22:58:21.794Z,10.25
2022-10-12T23:00:49.615Z,12.07
2022-10-12T23:03:17.506Z,9.60
2022-10-12T23:05:49.193Z,10.40
2022-10-12T23:08:17.176Z,11.40
2022-10-12T23:10:44.876Z,11.52
2022-10-12T23:13:14.151Z,9.70
2022-10-12T23:15:41.907Z,8.95
2022-10-12T23:18:09.862Z,10.63
2022-10-12T23:20:40.368Z,9.63
2022-10-12T23:23:08.209Z,8.43
2022-10-12T23:25:40.562Z,8.93
2022-10-12T23:28:09.410Z,9.43
2022-10-12T23:30:39.675Z,9.82
2022-10-12T23:33:07.580Z,10.55
2022-10-12T23:35:35.332Z,11.40
2022-10-12T23:38:03.175Z,9.55
2022-10-12T23:40:30.942Z,10.30
2022-10-12T23:42:58.726Z,10.63
2022-10-12T23:45:26.465Z,11.27
2022-10-12T23:47:55.926Z,10.02
2022-10-12T23:50:23.707Z,9.82
2022-10-12T23:52:51.463Z,11.82
2022-10-12T23:55:19.256Z,11.23
2022-10-12T23:57:47.649Z,9.35
